Time;durP1;ratioP1;P1;durP2;ratioP2;P2;SDS_P1;SDS_P2;PMS_P1;PMS_P2;Temp;Humidity;BMP_temperature;BMP_pressure;BME280_temperature;BME280_humidity;BME280_pressure;Samples;Min_cycle;Max_cycle;Signal;HPM_P1;HPM_P2
2022/03/12 00:03:46;;;;;;;12.00;5.93;;;;;;;;;;8185337;28;20064;-58
2022/03/12 00:07:47;;;;;;;8.98;5.28;;;;;;;;;;8185100;28;20106;-59
2022/03/12 00:11:51;;;;;;;13.50;5.55;;;;;;;;;;8184425;28;20034;-59
2022/03/12 00:15:51;;;;;;;7.15;4.90;;;;;;;;;;8183167;28;20730;-59
2022/03/12 00:19:52;;;;;;;8.27;5.00;;;;;;;;;;8186536;28;20022;-59
2022/03/12 00:23:58;;;;;;;12.27;5.65;;;;;;;;;;8183437;28;20102;-59
2022/03/12 00:27:58;;;;;;;12.25;5.90;;;;;;;;;;8183802;28;20038;-60
2022/03/12 00:31:58;;;;;;;12.55;6.47;;;;;;;;;;8182840;28;20039;-59
2022/03/12 00:35:59;;;;;;;16.40;7.55;;;;;;;;;;8183125;28;20050;-60
2022/03/12 00:39:59;;;;;;;18.98;7.85;;;;;;;;;;8184323;28;20039;-59
2022/03/12 00:43:59;;;;;;;18.92;7.32;;;;;;;;;;8189943;28;20472;-59
2022/03/12 00:47:59;;;;;;;13.48;6.18;;;;;;;;;;8190261;28;20066;-60
2022/03/12 00:52:00;;;;;;;15.32;6.65;;;;;;;;;;8191061;28;20139;-60
2022/03/12 00:56:00;;;;;;;13.98;6.85;;;;;;;;;;8188502;28;20094;-60
2022/03/12 01:00:01;;;;;;;13.15;6.25;;;;;;;;;;8188166;28;20095;-60
2022/03/12 01:04:01;;;;;;;14.18;7.03;;;;;;;;;;8187302;28;20135;-60
2022/03/12 01:08:01;;;;;;;10.98;5.68;;;;;;;;;;8188144;28;20058;-60
2022/03/12 01:12:02;;;;;;;12.32;6.43;;;;;;;;;;8189279;28;20073;-60
2022/03/12 01:16:03;;;;;;;10.98;5.78;;;;;;;;;;8192232;28;20504;-60
2022/03/12 01:20:07;;;;;;;8.52;5.45;;;;;;;;;;8185454;28;20178;-60
2022/03/12 01:24:08;;;;;;;10.85;5.35;;;;;;;;;;8184630;28;20023;-60
2022/03/12 01:28:09;;;;;;;9.23;5.78;;;;;;;;;;8186565;28;20022;-60
2022/03/12 01:32:09;;;;;;;12.15;6.70;;;;;;;;;;8187572;28;20039;-60
2022/03/12 01:36:10;;;;;;;17.25;9.57;;;;;;;;;;8188553;28;20043;-60
2022/03/12 01:40:11;;;;;;;28.90;13.20;;;;;;;;;;8186259;28;20030;-60
2022/03/12 01:44:13;;;;;;;15.88;9.32;;;;;;;;;;8189957;28;20134;-60
2022/03/12 01:48:13;;;;;;;13.20;7.72;;;;;;;;;;8188506;28;20027;-61
2022/03/12 01:52:14;;;;;;;10.88;6.57;;;;;;;;;;8187992;28;20031;-61
2022/03/12 01:56:14;;;;;;;12.10;6.82;;;;;;;;;;8187137;28;20738;-60
2022/03/12 02:00:24;;;;;;;8.98;5.75;;;;;;;;;;8185475;28;20031;-60
2022/03/12 02:04:29;;;;;;;10.65;6.03;;;;;;;;;;8187889;28;20982;-60
2022/03/12 02:08:29;;;;;;;11.77;5.82;;;;;;;;;;8185941;28;20154;-60
2022/03/12 02:12:29;;;;;;;10.98;6.18;;;;;;;;;;8186540;28;20059;-60
2022/03/12 02:16:30;;;;;;;12.07;6.38;;;;;;;;;;8186456;28;20399;-58
2022/03/12 02:20:31;;;;;;;9.23;5.97;;;;;;;;;;8200441;28;20073;-58
2022/03/12 02:24:32;;;;;;;9.32;6.10;;;;;;;;;;8186542;28;20070;-58
2022/03/12 02:28:32;;;;;;;10.82;6.32;;;;;;;;;;8187187;28;20659;-61
2022/03/12 02:32:32;;;;;;;12.05;6.40;;;;;;;;;;8183540;28;20102;-60
2022/03/12 02:36:32;;;;;;;9.43;6.18;;;;;;;;;;8186081;28;20039;-60
2022/03/12 02:40:33;;;;;;;16.20;6.22;;;;;;;;;;8184210;28;20124;-60
2022/03/12 02:44:33;;;;;;;11.90;6.35;;;;;;;;;;8186686;28;20042;-58
2022/03/12 02:48:35;;;;;;;16.40;6.82;;;;;;;;;;8187242;28;20434;-59
2022/03/12 02:52:40;;;;;;;14.73;6.97;;;;;;;;;;8185862;28;20417;-59
2022/03/12 02:56:40;;;;;;;10.70;6.05;;;;;;;;;;8184764;28;20046;-59
2022/03/12 03:00:40;;;;;;;8.57;6.05;;;;;;;;;;8181041;28;20034;-59
2022/03/12 03:04:41;;;;;;;12.90;6.40;;;;;;;;;;8183917;28;20827;-59
2022/03/12 03:08:42;;;;;;;12.82;6.88;;;;;;;;;;8185828;28;20278;-60
2022/03/12 03:12:42;;;;;;;10.02;6.50;;;;;;;;;;8183542;28;20023;-60
2022/03/12 03:16:44;;;;;;;9.77;5.53;;;;;;;;;;8184870;28;20074;-60
2022/03/12 03:20:45;;;;;;;9.13;5.78;;;;;;;;;;8184687;28;20078;-60
2022/03/12 03:24:45;;;;;;;10.55;5.68;;;;;;;;;;8184071;28;20117;-60
2022/03/12 03:28:45;;;;;;;10.60;5.93;;;;;;;;;;8185136;28;20031;-60
2022/03/12 03:32:45;;;;;;;11.05;6.43;;;;;;;;;;8182583;28;20034;-61
2022/03/12 03:36:46;;;;;;;13.77;7.78;;;;;;;;;;8186655;28;20030;-61
2022/03/12 03:40:47;;;;;;;13.20;7.18;;;;;;;;;;8182344;28;20026;-60
2022/03/12 03:44:47;;;;;;;8.98;5.88;;;;;;;;;;8185319;28;20448;-60
2022/03/12 03:48:48;;;;;;;9.07;6.43;;;;;;;;;;8182952;28;20031;-60
2022/03/12 03:52:49;;;;;;;7.82;5.50;;;;;;;;;;8185365;28;20100;-60
2022/03/12 03:56:50;;;;;;;10.35;6.25;;;;;;;;;;8183147;28;20027;-60
2022/03/12 04:00:53;;;;;;;11.82;5.85;;;;;;;;;;8184045;28;20035;-60
2022/03/12 04:04:53;;;;;;;8.75;6.03;;;;;;;;;;8182857;28;20898;-60
2022/03/12 04:08:54;;;;;;;8.32;5.63;;;;;;;;;;8181858;28;20591;-60
2022/03/12 04:12:54;;;;;;;9.63;5.78;;;;;;;;;;8184576;28;20049;-60
2022/03/12 04:16:58;;;;;;;7.93;5.43;;;;;;;;;;8182715;28;20066;-60
2022/03/12 04:21:00;;;;;;;8.85;6.18;;;;;;;;;;8181770;28;20502;-60
2022/03/12 04:25:00;;;;;;;8.73;6.10;;;;;;;;;;8182319;28;20082;-60
2022/03/12 04:29:01;;;;;;;10.83;5.73;;;;;;;;;;8181151;28;20019;-60
2022/03/12 04:33:01;;;;;;;9.05;5.55;;;;;;;;;;8182503;28;20283;-60
2022/03/12 04:37:03;;;;;;;12.25;6.35;;;;;;;;;;8182575;28;20124;-60
2022/03/12 04:41:03;;;;;;;16.05;6.82;;;;;;;;;;8182239;28;20038;-60
2022/03/12 04:45:08;;;;;;;9.50;6.50;;;;;;;;;;8183053;28;20034;-60
2022/03/12 04:49:08;;;;;;;9.93;6.38;;;;;;;;;;8182410;28;20674;-60
2022/03/12 04:53:08;;;;;;;11.95;6.63;;;;;;;;;;8183827;28;20105;-60
2022/03/12 04:57:09;;;;;;;11.30;7.50;;;;;;;;;;8179207;28;20050;-60
2022/03/12 05:01:09;;;;;;;12.98;7.55;;;;;;;;;;8182371;28;20041;-60
2022/03/12 05:05:11;;;;;;;10.80;7.00;;;;;;;;;;8181044;28;20162;-59
2022/03/12 05:09:11;;;;;;;10.70;6.60;;;;;;;;;;8182238;28;20477;-60
2022/03/12 05:13:12;;;;;;;13.73;7.57;;;;;;;;;;8181893;28;20503;-61
2022/03/12 05:17:14;;;;;;;10.90;6.53;;;;;;;;;;8182502;28;20619;-60
2022/03/12 05:21:14;;;;;;;12.75;6.82;;;;;;;;;;8184242;28;20041;-60
2022/03/12 05:25:19;;;;;;;11.35;7.30;;;;;;;;;;8181825;28;20225;-60
2022/03/12 05:29:21;;;;;;;10.75;6.38;;;;;;;;;;8186402;28;20085;-60
2022/03/12 05:33:22;;;;;;;12.48;6.97;;;;;;;;;;8186991;28;20035;-58
2022/03/12 05:37:23;;;;;;;11.30;6.60;;;;;;;;;;8189919;28;20071;-60
2022/03/12 05:41:23;;;;;;;12.48;6.78;;;;;;;;;;8186171;28;20042;-60
2022/03/12 05:45:23;;;;;;;10.75;6.82;;;;;;;;;;8192006;28;20043;-61
2022/03/12 05:49:24;;;;;;;12.38;6.70;;;;;;;;;;8188421;28;20034;-60
2022/03/12 05:53:25;;;;;;;11.75;7.40;;;;;;;;;;8187187;28;20178;-60
2022/03/12 05:57:25;;;;;;;27.52;10.77;;;;;;;;;;8189321;28;20019;-58
2022/03/12 06:01:25;;;;;;;13.73;7.13;;;;;;;;;;8185398;28;20074;-60
2022/03/12 06:05:26;;;;;;;19.70;8.27;;;;;;;;;;8189479;28;20420;-60
2022/03/12 06:09:26;;;;;;;19.48;8.88;;;;;;;;;;8188852;28;20041;-60
2022/03/12 06:13:27;;;;;;;19.42;9.07;;;;;;;;;;8185612;28;20031;-60
2022/03/12 06:17:28;;;;;;;25.52;8.52;;;;;;;;;;8185245;28;20050;-61
2022/03/12 06:21:28;;;;;;;13.38;7.00;;;;;;;;;;8187002;28;20023;-62
2022/03/12 06:25:29;;;;;;;10.50;6.93;;;;;;;;;;8185476;28;20031;-60
2022/03/12 06:29:30;;;;;;;9.60;6.30;;;;;;;;;;8185074;28;20036;-60
2022/03/12 06:33:31;;;;;;;11.80;6.90;;;;;;;;;;8183904;28;20091;-59
2022/03/12 06:37:32;;;;;;;10.25;6.55;;;;;;;;;;8186141;28;20365;-62
2022/03/12 06:41:38;;;;;;;16.27;7.68;;;;;;;;;;8183287;28;20038;-60
2022/03/12 06:45:38;;;;;;;15.73;8.10;;;;;;;;;;8186058;28;20039;-59
2022/03/12 06:49:38;;;;;;;13.05;7.57;;;;;;;;;;8183989;28;20078;-60
2022/03/12 06:53:39;;;;;;;13.70;7.18;;;;;;;;;;8190595;28;20033;-61
2022/03/12 06:57:40;;;;;;;12.07;7.07;;;;;;;;;;8185474;28;20026;-59
2022/03/12 07:01:41;;;;;;;14.90;8.27;;;;;;;;;;8181100;28;20038;-60
2022/03/12 07:05:41;;;;;;;13.07;7.37;;;;;;;;;;8181791;28;20472;-60
2022/03/12 07:09:41;;;;;;;12.63;7.28;;;;;;;;;;8183433;28;20313;-60
2022/03/12 07:13:42;;;;;;;14.53;7.83;;;;;;;;;;8184385;28;20007;-60
2022/03/12 07:17:43;;;;;;;14.88;7.97;;;;;;;;;;8181432;28;20362;-60
2022/03/12 07:21:43;;;;;;;11.20;7.18;;;;;;;;;;8181570;28;21337;-59
2022/03/12 07:25:43;;;;;;;11.68;7.15;;;;;;;;;;8181300;28;20023;-59
2022/03/12 07:29:43;;;;;;;12.25;7.38;;;;;;;;;;8182069;28;20066;-61
2022/03/12 07:33:44;;;;;;;12.27;7.60;;;;;;;;;;8180357;28;20058;-61
2022/03/12 07:37:46;;;;;;;10.32;7.00;;;;;;;;;;8183647;28;20122;-60
2022/03/12 07:41:46;;;;;;;11.75;7.20;;;;;;;;;;8180679;28;20705;-60
2022/03/12 07:45:46;;;;;;;15.73;8.13;;;;;;;;;;8182941;28;20511;-60
2022/03/12 07:49:47;;;;;;;15.23;7.37;;;;;;;;;;8179390;28;20055;-60
2022/03/12 07:53:47;;;;;;;10.55;7.47;;;;;;;;;;8183555;28;20279;-60
2022/03/12 07:57:47;;;;;;;15.13;7.90;;;;;;;;;;8182104;28;20018;-59
2022/03/12 08:01:47;;;;;;;19.23;7.72;;;;;;;;;;8178881;28;20031;-61
2022/03/12 08:05:48;;;;;;;12.75;7.70;;;;;;;;;;8183554;28;20539;-61
2022/03/12 08:09:55;;;;;;;12.95;7.95;;;;;;;;;;8181194;28;20026;-60
2022/03/12 08:13:57;;;;;;;13.18;7.45;;;;;;;;;;8183008;28;20026;-60
2022/03/12 08:17:57;;;;;;;12.93;7.60;;;;;;;;;;8180561;28;20674;-60
2022/03/12 08:22:03;;;;;;;13.45;8.20;;;;;;;;;;8179537;28;20404;-60
2022/03/12 08:26:04;;;;;;;12.45;7.68;;;;;;;;;;8180321;28;20039;-60
2022/03/12 08:30:05;;;;;;;11.95;7.57;;;;;;;;;;8180281;28;20086;-61
2022/03/12 08:34:06;;;;;;;14.60;7.68;;;;;;;;;;8182300;28;20030;-60
2022/03/12 08:38:07;;;;;;;13.05;7.63;;;;;;;;;;8182065;28;20019;-58
2022/03/12 08:42:08;;;;;;;16.60;8.50;;;;;;;;;;8179557;28;20031;-58
2022/03/12 08:46:09;;;;;;;12.60;8.18;;;;;;;;;;8180144;28;20049;-60
2022/03/12 08:50:09;;;;;;;17.90;7.28;;;;;;;;;;8181962;28;21012;-60
2022/03/12 08:54:09;;;;;;;15.77;8.30;;;;;;;;;;8182094;28;20031;-60
2022/03/12 08:58:10;;;;;;;11.32;7.32;;;;;;;;;;8178622;28;20034;-59
2022/03/12 09:02:10;;;;;;;11.60;7.55;;;;;;;;;;8180901;28;20047;-59
2022/03/12 09:06:10;;;;;;;11.25;7.38;;;;;;;;;;8186497;28;20031;-61
2022/03/12 09:10:11;;;;;;;13.70;8.05;;;;;;;;;;8183178;28;20023;-60
2022/03/12 09:14:12;;;;;;;12.43;7.75;;;;;;;;;;8185453;28;20086;-59
2022/03/12 09:18:13;;;;;;;11.18;7.70;;;;;;;;;;8181876;28;20505;-59
2022/03/12 09:22:13;;;;;;;11.43;7.13;;;;;;;;;;8185387;28;20136;-59
2022/03/12 09:26:15;;;;;;;17.03;8.03;;;;;;;;;;8186009;28;20031;-59
2022/03/12 09:30:15;;;;;;;12.27;7.35;;;;;;;;;;8183266;28;20046;-61
2022/03/12 09:34:15;;;;;;;13.68;7.75;;;;;;;;;;8183697;28;20023;-59
2022/03/12 09:38:16;;;;;;;16.85;8.23;;;;;;;;;;8187390;28;20019;-59
2022/03/12 09:42:16;;;;;;;10.82;7.75;;;;;;;;;;8181837;28;20038;-59
2022/03/12 09:46:17;;;;;;;17.13;8.50;;;;;;;;;;8185624;28;20054;-59
2022/03/12 09:50:17;;;;;;;20.98;8.23;;;;;;;;;;8184701;28;20547;-59
2022/03/12 09:54:18;;;;;;;15.43;8.60;;;;;;;;;;8187538;28;20042;-60
2022/03/12 09:58:18;;;;;;;17.40;9.25;;;;;;;;;;8187134;28;20385;-60
2022/03/12 10:02:20;;;;;;;15.65;8.60;;;;;;;;;;8184309;28;20070;-62
2022/03/12 10:06:20;;;;;;;14.32;9.02;;;;;;;;;;8185951;28;20090;-59
2022/03/12 10:10:22;;;;;;;18.67;8.88;;;;;;;;;;8185351;28;20240;-59
2022/03/12 10:14:24;;;;;;;14.23;8.93;;;;;;;;;;8185301;28;20408;-60
2022/03/12 10:18:25;;;;;;;13.25;8.65;;;;;;;;;;8187828;28;20113;-60
2022/03/12 10:22:25;;;;;;;15.68;8.50;;;;;;;;;;8188177;28;20023;-58
2022/03/12 10:26:25;;;;;;;12.82;8.90;;;;;;;;;;8184551;28;20035;-60
2022/03/12 10:30:26;;;;;;;14.73;8.57;;;;;;;;;;8187346;28;20802;-58
2022/03/12 10:34:26;;;;;;;17.13;8.68;;;;;;;;;;8186507;28;20328;-58
2022/03/12 10:38:36;;;;;;;13.75;8.65;;;;;;;;;;8186125;28;20085;-58
2022/03/12 10:42:37;;;;;;;15.98;9.00;;;;;;;;;;8184250;28;20035;-58
2022/03/12 10:46:39;;;;;;;13.13;8.20;;;;;;;;;;8182276;28;20079;-58
2022/03/12 10:50:44;;;;;;;14.45;8.15;;;;;;;;;;8184487;28;20027;-58
2022/03/12 10:54:44;;;;;;;14.25;8.25;;;;;;;;;;8183943;28;20030;-58
2022/03/12 10:58:44;;;;;;;12.88;8.38;;;;;;;;;;8184915;28;20019;-58
2022/03/12 11:02:53;;;;;;;13.77;8.47;;;;;;;;;;8183992;28;20949;-61
2022/03/12 11:06:56;;;;;;;14.32;9.10;;;;;;;;;;8186062;28;20385;-61
2022/03/12 11:10:58;;;;;;;16.50;8.88;;;;;;;;;;8183899;28;20058;-59
2022/03/12 11:15:04;;;;;;;13.70;8.82;;;;;;;;;;8184564;28;20038;-60
2022/03/12 11:19:11;;;;;;;13.05;8.23;;;;;;;;;;8182926;28;20113;-60
2022/03/12 11:23:27;;;;;;;13.63;8.50;;;;;;;;;;8182142;28;20108;-61
2022/03/12 11:27:28;;;;;;;12.27;8.30;;;;;;;;;;8185244;28;20027;-60
2022/03/12 11:31:39;;;;;;;14.77;8.20;;;;;;;;;;8181275;28;20036;-60
2022/03/12 11:35:44;;;;;;;13.90;8.43;;;;;;;;;;8184616;28;20043;-61
2022/03/12 11:39:48;;;;;;;12.57;8.65;;;;;;;;;;8183855;28;20042;-61
2022/03/12 11:43:49;;;;;;;14.02;8.15;;;;;;;;;;8179732;28;20121;-61
2022/03/12 11:47:49;;;;;;;12.02;8.52;;;;;;;;;;8184348;28;20077;-60
2022/03/12 11:51:51;;;;;;;11.90;8.65;;;;;;;;;;8183173;28;20023;-61
2022/03/12 11:55:52;;;;;;;17.05;8.27;;;;;;;;;;8182579;28;20030;-60
2022/03/12 11:59:53;;;;;;;13.65;8.13;;;;;;;;;;8183107;28;20014;-60
2022/03/12 12:03:53;;;;;;;15.93;9.50;;;;;;;;;;8183810;28;20039;-60
2022/03/12 12:07:55;;;;;;;12.65;8.63;;;;;;;;;;8182146;28;20042;-60
2022/03/12 12:11:56;;;;;;;15.23;9.20;;;;;;;;;;8181929;28;20030;-59
2022/03/12 12:15:57;;;;;;;14.97;9.00;;;;;;;;;;8184024;28;20122;-61
2022/03/12 12:19:57;;;;;;;16.13;10.23;;;;;;;;;;8181378;28;20661;-60
2022/03/12 12:23:59;;;;;;;11.50;8.20;;;;;;;;;;8183847;28;20027;-61
2022/03/12 12:27:59;;;;;;;12.68;8.60;;;;;;;;;;8185068;28;20030;-61
2022/03/12 12:32:05;;;;;;;15.25;9.23;;;;;;;;;;8181221;28;20038;-61
2022/03/12 12:36:05;;;;;;;21.10;8.95;;;;;;;;;;8186660;28;20027;-62
2022/03/12 12:40:12;;;;;;;12.73;9.23;;;;;;;;;;8186606;28;20041;-61
2022/03/12 12:44:12;;;;;;;13.35;9.07;;;;;;;;;;8188283;28;20396;-63
2022/03/12 12:48:14;;;;;;;15.82;8.60;;;;;;;;;;8185492;28;20164;-63
2022/03/12 12:52:14;;;;;;;14.55;8.90;;;;;;;;;;8188261;28;20045;-62
2022/03/12 12:56:17;;;;;;;15.88;9.38;;;;;;;;;;8189621;28;20028;-62
2022/03/12 13:00:20;;;;;;;13.93;9.15;;;;;;;;;;8188848;28;20510;-61
2022/03/12 13:04:39;;;;;;;13.20;8.87;;;;;;;;;;8190190;28;20504;-58
2022/03/12 13:08:46;;;;;;;18.20;9.50;;;;;;;;;;8188027;28;20732;-61
2022/03/12 13:12:46;;;;;;;14.90;8.98;;;;;;;;;;8195299;28;20039;-64
2022/03/12 13:16:55;;;;;;;20.88;9.23;;;;;;;;;;8188394;28;20047;-57
2022/03/12 13:20:56;;;;;;;14.23;8.63;;;;;;;;;;8188257;28;20031;-63
2022/03/12 13:25:02;;;;;;;14.57;9.23;;;;;;;;;;8187957;28;20077;-63
2022/03/12 13:29:08;;;;;;;21.23;9.20;;;;;;;;;;8188265;28;20473;-61
2022/03/12 13:33:10;;;;;;;16.00;9.02;;;;;;;;;;8187650;28;20058;-61
2022/03/12 13:37:11;;;;;;;11.38;9.13;;;;;;;;;;8185938;28;20023;-62
2022/03/12 13:41:15;;;;;;;13.02;9.27;;;;;;;;;;8184938;28;20089;-62
2022/03/12 13:45:16;;;;;;;12.32;9.02;;;;;;;;;;8191533;28;20239;-66
2022/03/12 13:49:18;;;;;;;14.38;9.20;;;;;;;;;;8195801;28;20031;-56
2022/03/12 13:53:19;;;;;;;12.65;8.98;;;;;;;;;;8191853;28;20029;-61
2022/03/12 13:57:25;;;;;;;12.18;8.82;;;;;;;;;;8192476;28;20126;-61
2022/03/12 14:01:30;;;;;;;12.65;9.23;;;;;;;;;;8192779;28;20039;-60
2022/03/12 14:05:31;;;;;;;14.95;8.85;;;;;;;;;;8205068;28;20556;-59
2022/03/12 14:09:34;;;;;;;13.55;9.23;;;;;;;;;;8197244;28;20138;-60
2022/03/12 14:13:38;;;;;;;14.55;9.65;;;;;;;;;;8195582;28;20134;-61
2022/03/12 14:17:38;;;;;;;;;;;;;;;;;;8191881;28;20138;-61
2022/03/12 14:21:43;;;;;;;14.65;8.80;;;;;;;;;;8193561;28;19910;-62
2022/03/12 14:25:43;;;;;;;15.05;9.43;;;;;;;;;;8188101;28;20023;-61
2022/03/12 14:29:44;;;;;;;19.23;9.57;;;;;;;;;;8186288;28;20776;-63
2022/03/12 14:33:45;;;;;;;13.82;9.82;;;;;;;;;;8192603;28;20038;-64
2022/03/12 14:37:47;;;;;;;12.43;8.18;;;;;;;;;;8187211;28;20031;-62
2022/03/12 14:41:47;;;;;;;11.00;8.65;;;;;;;;;;8185279;28;20036;-62
2022/03/12 14:45:48;;;;;;;11.05;8.27;;;;;;;;;;8188871;28;20602;-62
2022/03/12 14:49:55;;;;;;;13.80;8.23;;;;;;;;;;8187506;28;20023;-62
2022/03/12 14:53:56;;;;;;;9.98;7.97;;;;;;;;;;8189514;28;20385;-62
2022/03/12 14:57:56;;;;;;;14.23;8.75;;;;;;;;;;8186344;28;20065;-61
2022/03/12 15:02:14;;;;;;;12.63;8.63;;;;;;;;;;8184759;28;20036;-61
2022/03/12 15:06:17;;;;;;;15.27;9.25;;;;;;;;;;8184884;28;20081;-60
2022/03/12 15:10:22;;;;;;;13.55;8.27;;;;;;;;;;8181856;28;20023;-61
2022/03/12 15:14:29;;;;;;;13.32;8.30;;;;;;;;;;8186836;28;20100;-62
2022/03/12 15:18:29;;;;;;;9.77;7.45;;;;;;;;;;8183793;28;20104;-61
2022/03/12 15:22:30;;;;;;;14.30;8.18;;;;;;;;;;8182722;28;20070;-61
2022/03/12 15:26:30;;;;;;;15.55;8.57;;;;;;;;;;8180883;28;20969;-61
2022/03/12 15:30:31;;;;;;;13.05;8.20;;;;;;;;;;8183760;28;20043;-59
2022/03/12 15:34:33;;;;;;;11.23;7.68;;;;;;;;;;8189541;28;20034;-60
2022/03/12 15:38:33;;;;;;;12.73;7.90;;;;;;;;;;8189955;28;20424;-59
2022/03/12 15:42:39;;;;;;;13.00;7.93;;;;;;;;;;8188813;28;20177;-59
2022/03/12 15:46:39;;;;;;;12.98;8.55;;;;;;;;;;8193293;28;20074;-58
2022/03/12 15:50:40;;;;;;;17.50;10.13;;;;;;;;;;8188727;28;20038;-60
2022/03/12 15:54:42;;;;;;;17.33;10.20;;;;;;;;;;8191178;28;20142;-60
2022/03/12 15:58:44;;;;;;;11.93;8.30;;;;;;;;;;8184004;28;20315;-60
2022/03/12 16:02:45;;;;;;;11.45;7.72;;;;;;;;;;8177881;28;20035;-60
2022/03/12 16:06:45;;;;;;;12.98;7.90;;;;;;;;;;8181183;28;20034;-62
2022/03/12 16:10:46;;;;;;;12.10;8.05;;;;;;;;;;8182326;28;20745;-62
2022/03/12 16:14:46;;;;;;;11.48;7.35;;;;;;;;;;8181783;28;20085;-60
2022/03/12 16:18:46;;;;;;;10.75;7.60;;;;;;;;;;8180311;28;20031;-60
2022/03/12 16:22:47;;;;;;;10.05;7.63;;;;;;;;;;8182907;28;20802;-59
2022/03/12 16:26:47;;;;;;;10.80;7.80;;;;;;;;;;8182891;28;20026;-60
2022/03/12 16:30:47;;;;;;;13.63;8.75;;;;;;;;;;8181915;28;20042;-59
2022/03/12 16:34:47;;;;;;;14.45;9.02;;;;;;;;;;8184348;28;20540;-60
2022/03/12 16:38:48;;;;;;;14.38;9.25;;;;;;;;;;8182419;28;20022;-59
2022/03/12 16:42:50;;;;;;;14.68;9.32;;;;;;;;;;8184540;28;20029;-59
2022/03/12 16:46:50;;;;;;;16.83;9.48;;;;;;;;;;8183273;28;20136;-59
2022/03/12 16:50:51;;;;;;;22.73;9.88;;;;;;;;;;8185111;28;20030;-62
2022/03/12 16:54:51;;;;;;;14.27;9.80;;;;;;;;;;8184719;28;20023;-59
2022/03/12 16:58:51;;;;;;;16.07;10.83;;;;;;;;;;8183745;28;20137;-60
2022/03/12 17:02:56;;;;;;;18.85;10.75;;;;;;;;;;8183601;28;20039;-58
2022/03/12 17:06:56;;;;;;;16.65;10.85;;;;;;;;;;8181257;28;20439;-59
2022/03/12 17:11:00;;;;;;;16.60;10.20;;;;;;;;;;8180635;28;20141;-59
2022/03/12 17:15:01;;;;;;;15.52;10.18;;;;;;;;;;8183196;28;20027;-59
2022/03/12 17:19:01;;;;;;;20.38;10.68;;;;;;;;;;8182547;28;20063;-58
2022/03/12 17:23:02;;;;;;;16.57;10.47;;;;;;;;;;8184626;28;20037;-58
2022/03/12 17:27:02;;;;;;;14.65;10.18;;;;;;;;;;8184908;28;20458;-58
2022/03/12 17:31:03;;;;;;;15.45;9.60;;;;;;;;;;8183515;28;20031;-58
2022/03/12 17:35:03;;;;;;;18.17;10.48;;;;;;;;;;8185340;28;20019;-58
2022/03/12 17:39:04;;;;;;;18.13;10.52;;;;;;;;;;8182305;28;20964;-59
2022/03/12 17:43:05;;;;;;;16.65;10.30;;;;;;;;;;8184512;28;20045;-59
2022/03/12 17:47:05;;;;;;;16.63;10.20;;;;;;;;;;8184753;28;20074;-60
2022/03/12 17:51:06;;;;;;;17.27;10.03;;;;;;;;;;8184072;28;20819;-60
2022/03/12 17:55:11;;;;;;;18.10;10.20;;;;;;;;;;8182099;28;20955;-59
2022/03/12 17:59:12;;;;;;;19.67;10.27;;;;;;;;;;8180116;28;20543;-58
2022/03/12 18:03:15;;;;;;;17.08;9.70;;;;;;;;;;8181103;28;20031;-59
2022/03/12 18:07:15;;;;;;;14.05;9.63;;;;;;;;;;8190390;28;20034;-58
2022/03/12 18:11:17;;;;;;;15.48;9.48;;;;;;;;;;8185835;28;20034;-59
2022/03/12 18:15:18;;;;;;;17.58;9.52;;;;;;;;;;8180395;28;20773;-59
2022/03/12 18:19:19;;;;;;;14.35;9.18;;;;;;;;;;8177888;28;20066;-59
2022/03/12 18:23:20;;;;;;;16.70;9.60;;;;;;;;;;8179016;28;20042;-59
2022/03/12 18:27:20;;;;;;;19.65;10.10;;;;;;;;;;8186394;28;20121;-59
2022/03/12 18:31:22;;;;;;;12.43;8.40;;;;;;;;;;8191383;28;20031;-59
2022/03/12 18:35:22;;;;;;;15.88;8.98;;;;;;;;;;8193518;28;20041;-59
2022/03/12 18:39:23;;;;;;;14.38;8.98;;;;;;;;;;8183541;28;20046;-59
2022/03/12 18:43:23;;;;;;;14.33;8.73;;;;;;;;;;8183273;28;20129;-59
2022/03/12 18:47:23;;;;;;;15.02;8.70;;;;;;;;;;8184616;28;20291;-59
2022/03/12 18:51:25;;;;;;;11.50;8.25;;;;;;;;;;8182118;28;20035;-60
2022/03/12 18:55:25;;;;;;;13.48;8.25;;;;;;;;;;8181768;28;20038;-59
2022/03/12 18:59:25;;;;;;;16.30;8.40;;;;;;;;;;8183605;28;20130;-59
2022/03/12 19:03:26;;;;;;;13.40;8.80;;;;;;;;;;8183559;28;20141;-58
2022/03/12 19:07:26;;;;;;;14.43;7.90;;;;;;;;;;8186483;28;20030;-58
2022/03/12 19:11:26;;;;;;;17.60;8.83;;;;;;;;;;8182992;28;20134;-58
2022/03/12 19:15:27;;;;;;;13.98;8.50;;;;;;;;;;8184849;28;21327;-58
2022/03/12 19:19:28;;;;;;;17.38;10.05;;;;;;;;;;8184603;28;20035;-58
2022/03/12 19:23:30;;;;;;;19.60;10.48;;;;;;;;;;8184199;28;20844;-58
2022/03/12 19:27:33;;;;;;;21.25;9.63;;;;;;;;;;8185014;28;20042;-58
2022/03/12 19:31:33;;;;;;;29.73;11.60;;;;;;;;;;8182469;28;20050;-58
2022/03/12 19:35:33;;;;;;;15.60;8.93;;;;;;;;;;8182877;28;20345;-59
2022/03/12 19:39:33;;;;;;;10.40;7.45;;;;;;;;;;8181628;28;20065;-58
2022/03/12 19:43:34;;;;;;;11.45;7.57;;;;;;;;;;8182521;28;20034;-58
2022/03/12 19:47:34;;;;;;;22.33;11.68;;;;;;;;;;8179912;28;20046;-58
2022/03/12 19:51:34;;;;;;;36.40;14.82;;;;;;;;;;8183724;28;20042;-58
2022/03/12 19:55:36;;;;;;;44.35;17.27;;;;;;;;;;8181214;28;20295;-58
2022/03/12 19:59:37;;;;;;;28.88;13.95;;;;;;;;;;8181126;28;20660;-58
2022/03/12 20:03:40;;;;;;;20.10;10.40;;;;;;;;;;8181180;28;21102;-58
2022/03/12 20:07:40;;;;;;;20.00;10.70;;;;;;;;;;8181926;28;22477;-58
2022/03/12 20:11:41;;;;;;;22.42;9.38;;;;;;;;;;8180568;28;20048;-59
2022/03/12 20:15:42;;;;;;;18.13;7.85;;;;;;;;;;8184558;28;20472;-60
2022/03/12 20:19:42;;;;;;;23.38;14.20;;;;;;;;;;8181330;28;20105;-58
2022/03/12 20:23:42;;;;;;;24.13;13.90;;;;;;;;;;8183247;28;20027;-59
2022/03/12 20:27:42;;;;;;;18.35;11.52;;;;;;;;;;8183320;28;20312;-59
2022/03/12 20:31:42;;;;;;;17.98;10.70;;;;;;;;;;8179987;28;20042;-59
2022/03/12 20:35:43;;;;;;;21.90;12.25;;;;;;;;;;8181104;28;20034;-59
2022/03/12 20:39:45;;;;;;;20.52;11.18;;;;;;;;;;8179939;28;20039;-59
2022/03/12 20:43:45;;;;;;;18.77;10.95;;;;;;;;;;8182759;28;20039;-59
2022/03/12 20:47:45;;;;;;;14.63;9.73;;;;;;;;;;8177065;28;20042;-59
2022/03/12 20:51:46;;;;;;;11.73;8.65;;;;;;;;;;8181482;28;20037;-59
2022/03/12 20:55:47;;;;;;;16.75;9.70;;;;;;;;;;8178943;28;20027;-59
2022/03/12 20:59:47;;;;;;;16.75;10.00;;;;;;;;;;8187479;28;20014;-58
2022/03/12 21:03:48;;;;;;;14.57;8.73;;;;;;;;;;8185704;28;20031;-58
2022/03/12 21:07:54;;;;;;;12.25;8.32;;;;;;;;;;8187484;28;20031;-59
2022/03/12 21:11:59;;;;;;;13.00;9.15;;;;;;;;;;8186890;28;20033;-58
2022/03/12 21:16:00;;;;;;;11.18;8.00;;;;;;;;;;8186608;28;20635;-58
2022/03/12 21:20:00;;;;;;;13.15;7.43;;;;;;;;;;8186543;28;20019;-58
2022/03/12 21:24:01;;;;;;;14.23;8.40;;;;;;;;;;8186908;28;21042;-58
2022/03/12 21:28:04;;;;;;;16.13;8.20;;;;;;;;;;8187654;28;20305;-58
2022/03/12 21:32:05;;;;;;;19.30;10.02;;;;;;;;;;8189341;28;20128;-58
2022/03/12 21:36:09;;;;;;;17.52;9.57;;;;;;;;;;8186424;28;20777;-59
2022/03/12 21:40:12;;;;;;;26.35;12.90;;;;;;;;;;8187973;28;20026;-58
2022/03/12 21:44:13;;;;;;;19.10;11.05;;;;;;;;;;8188725;28;20058;-58
2022/03/12 21:48:15;;;;;;;23.77;12.40;;;;;;;;;;8187597;28;20763;-58
2022/03/12 21:52:15;;;;;;;25.13;11.85;;;;;;;;;;8190525;28;20043;-59
2022/03/12 21:56:16;;;;;;;19.00;10.70;;;;;;;;;;8188944;28;20034;-58
2022/03/12 22:00:27;;;;;;;21.77;10.38;;;;;;;;;;8188529;28;20026;-59
2022/03/12 22:04:27;;;;;;;20.67;8.60;;;;;;;;;;8187267;28;20117;-57
2022/03/12 22:08:29;;;;;;;11.80;7.30;;;;;;;;;;8187777;28;20023;-58
2022/03/12 22:12:29;;;;;;;11.52;6.50;;;;;;;;;;8188518;28;20909;-60
2022/03/12 22:16:30;;;;;;;12.35;6.70;;;;;;;;;;8187584;28;20050;-59
2022/03/12 22:20:30;;;;;;;10.32;6.82;;;;;;;;;;8187307;28;20027;-59
2022/03/12 22:24:31;;;;;;;11.00;6.85;;;;;;;;;;8189021;28;20019;-59
2022/03/12 22:28:31;;;;;;;13.18;7.47;;;;;;;;;;8184082;28;20499;-59
2022/03/12 22:32:31;;;;;;;10.23;6.72;;;;;;;;;;8187571;28;20385;-59
2022/03/12 22:36:32;;;;;;;13.80;6.97;;;;;;;;;;8187031;28;20027;-58
2022/03/12 22:40:33;;;;;;;11.80;7.00;;;;;;;;;;8187839;28;20285;-58
2022/03/12 22:44:37;;;;;;;14.23;7.43;;;;;;;;;;8191200;28;20031;-59
2022/03/12 22:48:38;;;;;;;;;;;;;;;;;;8186238;28;20050;-59
2022/03/12 22:52:38;;;;;;;12.70;7.75;;;;;;;;;;8188660;28;19916;-58
2022/03/12 22:56:38;;;;;;;11.13;7.30;;;;;;;;;;8187512;28;20030;-58
2022/03/12 23:00:41;;;;;;;10.73;6.90;;;;;;;;;;8187247;28;20147;-59
2022/03/12 23:09:06;;;;;;;11.03;7.50;;;;;;;;;;8187709;28;20057;-58
2022/03/12 23:13:06;;;;;;;12.20;7.53;;;;;;;;;;8187383;28;20046;-58
2022/03/12 23:17:06;;;;;;;10.68;7.32;;;;;;;;;;8187052;28;20768;-58
2022/03/12 23:21:10;;;;;;;10.40;6.83;;;;;;;;;;8184552;28;20027;-58
2022/03/12 23:25:14;;;;;;;10.50;7.03;;;;;;;;;;8185758;28;20277;-58
2022/03/12 23:29:15;;;;;;;11.25;6.30;;;;;;;;;;8186118;28;20806;-58
2022/03/12 23:33:15;;;;;;;10.30;6.75;;;;;;;;;;8184783;28;20137;-58
2022/03/12 23:37:16;;;;;;;13.23;6.80;;;;;;;;;;8184977;28;20034;-58
2022/03/12 23:41:17;;;;;;;11.15;6.78;;;;;;;;;;8186121;28;20043;-58
2022/03/12 23:45:23;;;;;;;9.07;6.53;;;;;;;;;;8184962;28;20052;-58
2022/03/12 23:49:25;;;;;;;9.60;6.55;;;;;;;;;;8185983;28;20492;-58
2022/03/12 23:53:25;;;;;;;9.88;6.65;;;;;;;;;;8185416;28;20025;-58